Flight Track Log - Related Links

Times and Time Zones

All times are in EDT time to prevent confusion due to time zone crossing. See the SKW5625 flight status page for this flight to view local times or setup timezone preferences in your user account.

Time Position Orientation Groundspeed Altitude Reporting Facility
EDT Latitude Longitude Course Direction KTS MPH feet Rate Location/Type
Wed 03:37:40 PM 42.3867 -122.8806 296° West 133 153 2,000  Level Seattle Center
Wed 03:38:42 PM 42.4019 -122.9233 296° West 156 180 3,800 1,659 Climbing Seattle Center
Wed 03:39:43 PM 42.3533 -122.9122 170° South 179 206 5,400 1,574 Climbing Seattle Center
Wed 03:40:44 PM 42.3025 -122.9067 175° South 194 223 7,000 1,525 Climbing Seattle Center
Wed 03:41:45 PM 42.2486 -122.9078 181° South 196 226 8,500 1,561 Climbing Seattle Center
Wed 03:42:47 PM 42.1944 -122.9053 178° South 197 227 10,200 1,463 Climbing Seattle Center
Wed 03:43:48 PM 42.1397 -122.9053 180° South 197 227 11,500 1,131 Climbing Seattle Center
Wed 03:44:49 PM 42.0828 -122.9083 182° South 203 234 12,500 1,073 Climbing Seattle Center
Wed 03:45:51 PM 42.0097 -122.9072 179° South 217 250 13,700 1,073 Climbing Seattle Center
Wed 03:46:52 PM 41.9492 -122.9050 178° South 219 252 14,700 836 Climbing Seattle Center
Wed 03:47:53 PM 41.8908 -122.9044 180° South 213 245 15,400 738 Climbing Seattle Center
Wed 03:48:54 PM 41.8269 -122.9050 180° South 228 262 16,200 738 Climbing Seattle Center
Wed 03:49:55 PM 41.7639 -122.9022 178° South 228 262 16,900 780 Climbing Seattle Center
Wed 03:50:57 PM 41.7025 -122.9025 180° South 222 255 17,800 878 Climbing Seattle Center
Wed 03:51:58 PM 41.6433 -122.9036 181° South 216 249 18,700 885 Climbing Seattle Center
Wed 03:52:59 PM 41.5831 -122.9028 179° South 215 247 19,600 787 Climbing Seattle Center
Wed 03:54:00 PM 41.5222 -122.9014 179° South 218 251 20,300 780 Climbing Seattle Center
Wed 03:55:02 PM 41.4492 -122.9006 180° South 220 253 21,200 780 Climbing Seattle Center
Wed 03:56:03 PM 41.3892 -122.9000 180° South 218 251 21,900 639 Climbing Seattle Center
Wed 03:57:04 PM 41.3358 -122.9014 181° South 218 251 22,500 541 Climbing Seattle Center
Wed 03:58:05 PM 41.2761 -122.9008 180° South 216 249 23,000 246 Climbing Seattle Center
Wed 03:59:06 PM 41.1978 -122.9014 180° South 229 264 23,000  Level Seattle Center
Wed 04:00:08 PM 41.1292 -122.8986 178° South 240 276 23,000  Level Seattle Center
Wed 04:01:09 PM 41.0586 -122.8978 179° South 249 287 23,000  Level Seattle Center
Wed 04:02:10 PM 40.9875 -122.8989 181° South 255 293 23,000  Level Seattle Center
Wed 04:03:11 PM 40.9164 -122.8967 179° South 256 295 23,000  Level Seattle Center
Wed 04:04:11 PM 40.8456 -122.8969 180° South 257 296 23,000  Level Oakland Center
Wed 04:05:12 PM 40.7733 -122.8958 179° South 259 298 23,000  Level Oakland Center
Wed 04:06:14 PM 40.7017 -122.8950 179° South 259 298 23,000  Level Oakland Center
Wed 04:07:15 PM 40.6297 -122.8942 179° South 259 298 23,000  Level Oakland Center
Wed 04:08:17 PM 40.5439 -122.8933 180° South 257 296 23,000  Level Oakland Center
Wed 04:09:18 PM 40.4717 -122.8925 179° South 258 297 23,000  Level Oakland Center
Wed 04:10:20 PM 40.3994 -122.8925 180° South 260 299 23,000  Level Oakland Center
Wed 04:11:21 PM 40.3269 -122.8914 179° South 261 300 23,000  Level Oakland Center
Wed 04:12:22 PM 40.2544 -122.8906 179° South 262 302 23,000  Level Oakland Center
Wed 04:13:24 PM 40.1817 -122.8894 179° South 263 303 23,000  Level Oakland Center
Wed 04:14:25 PM 40.1089 -122.8886 179° South 263 303 23,000  Level Oakland Center
Wed 04:15:27 PM 40.0219 -122.8875 179° South 262 302 23,000  Level Oakland Center
Wed 04:16:28 PM 39.9506 -122.8867 179° South 259 298 23,000  Level Oakland Center
Wed 04:17:30 PM 39.8786 -122.8858 179° South 259 298 23,000  Level Oakland Center
Wed 04:18:31 PM 39.8050 -122.8844 179° South 264 304 23,000  Level Oakland Center
Wed 04:19:32 PM 39.7322 -122.8853 181° South 261 300 23,000  Level Oakland Center
Wed 04:20:34 PM 39.6594 -122.8828 178° South 262 302 23,000  Level Oakland Center
Wed 04:21:35 PM 39.5869 -122.8825 180° South 263 303 23,000  Level Oakland Center
Wed 04:22:37 PM 39.5139 -122.8819 180° South 262 302 23,000  Level Oakland Center
Wed 04:23:38 PM 39.4283 -122.8794 179° South 255 293 23,000  Level Oakland Center
Wed 04:24:40 PM 39.3564 -122.8764 178° South 259 298 23,000  Level Oakland Center
Wed 04:25:41 PM 39.2828 -122.8767 180° South 263 303 23,000  Level Oakland Center
Wed 04:26:43 PM 39.2086 -122.8769 180° South 267 307 23,000  Level Oakland Center
Wed 04:27:44 PM 39.1344 -122.8772 180° South 267 307 23,000  Level Oakland Center
Wed 04:28:45 PM 39.0617 -122.8758 179° South 264 304 23,000  Level Oakland Center
Wed 04:29:47 PM 38.9883 -122.8747 179° South 265 305 23,000  Level Oakland Center
Wed 04:30:48 PM 38.9133 -122.8756 180° South 269 310 23,000  Level Oakland Center
Wed 04:31:50 PM 38.8242 -122.8739 179° South 268 308 23,000  Level Oakland Center
Wed 04:32:51 PM 38.7506 -122.8739 180° South 266 306 23,000  Level Oakland Center
Wed 04:33:53 PM 38.6747 -122.8725 179° South 271 312 23,000  Level Oakland Center
Wed 04:34:54 PM 38.6008 -122.8725 180° South 265 305 23,000 -146 Level Oakland Center
Wed 04:35:56 PM 38.5231 -122.8733 180° South 277 319 22,700 -1,024 Descending Oakland Center
Wed 04:36:57 PM 38.4539 -122.8731 180° South 258 297 20,900 -1,805 Descending Oakland Center
Wed 04:37:59 PM 38.3806 -122.8708 179° South 260 299 19,000 -1,805 Descending Oakland Center
Wed 04:39:00 PM 38.3011 -122.8714 180° South 278 320 17,200 -2,244 Descending Oakland Center
Wed 04:40:02 PM 38.2058 -122.8706 180° South 286 329 14,400 -2,829 Descending Oakland Center
Wed 04:41:03 PM 38.1269 -122.8711 180° South 286 329 11,400 -2,488 Descending Oakland Center
Wed 04:42:05 PM 38.0597 -122.8394 160° South 279 321 9,300 -1,984 Descending Oakland Center
Wed 04:43:07 PM 38.0208 -122.7633 123° Southeast 260 299 7,300 -1,122 Descending Oakland Center
Wed 04:44:08 PM 37.9636 -122.7294 155° Southeast 226 260 7,000 -146 Descending Oakland Center
Wed 04:45:10 PM 37.9106 -122.6989 156° South 213 245 7,000  Level Oakland Center
Wed 04:46:11 PM 37.8553 -122.6406 140° Southeast 221 254 7,000  Level Oakland Center
Wed 04:47:31 PM 37.8000 -122.5667 133° Southeast 211 243 7,000  Level Northern Cal TRACON
Wed 04:48:31 PM 37.7500 -122.5167 142° Southeast 209 241 7,000 -248 Level Northern Cal TRACON
Wed 04:49:32 PM 37.7167 -122.4833 142° Southeast 207 238 6,500 -850 Descending Northern Cal TRACON
Wed 04:50:31 PM 37.6667 -122.4333 142° Southeast 199 229 5,300 -1,160 Descending Northern Cal TRACON
Wed 04:51:31 PM 37.6333 -122.3833 130° Southeast 196 226 4,200 -650 Descending Northern Cal TRACON
Wed 04:52:31 PM 37.5833 -122.3500 152° Southeast 193 222 4,000 -100 Descending Northern Cal TRACON
Wed 04:53:31 PM 37.5333 -122.3167 152° Southeast 189 217 4,000  Level Northern Cal TRACON
Wed 04:54:32 PM 37.5000 -122.2667 130° Southeast 199 229 4,000 -50 Level Northern Cal TRACON
Wed 04:55:32 PM 37.4833 -122.2000 107° East 200 230 3,900 -421 Descending Northern Cal TRACON
Wed 04:56:26 PM 37.5167 -122.1833 22° Northeast 219 252 3,200 -700 Descending Northern Cal TRACON
Wed 04:57:32 PM 37.5667 -122.2333 322° Northwest 170 196 2,500 -636 Descending Northern Cal TRACON

Login

Don't have an account? Register now (free) for customized features, flight alerts, and more!